Time;durP1;ratioP1;P1;durP2;ratioP2;P2;SDS_P1;SDS_P2;PMS_P1;PMS_P2;Temp;Humidity;BMP_temperature;BMP_pressure;BME280_temperature;BME280_humidity;BME280_pressure;Samples;Min_cycle;Max_cycle;Signal;HPM_P1;HPM_P2
2023/08/31 00:00:46;;;;;;;439.53;416.23;;;11.90;99.90;;;;;;4977697;28;20530;-68
2023/08/31 00:03:14;;;;;;;512.17;483.57;;;11.70;99.90;;;;;;4976355;28;20459;-68
2023/08/31 00:05:43;;;;;;;537.60;507.97;;;11.70;99.90;;;;;;4976360;28;20451;-68
2023/08/31 00:08:11;;;;;;;556.80;526.13;;;11.60;99.90;;;;;;4977797;28;20828;-69
2023/08/31 00:10:38;;;;;;;583.20;550.00;;;11.50;99.90;;;;;;4977099;28;20997;-69
2023/08/31 00:13:07;;;;;;;605.20;567.47;;;11.50;99.90;;;;;;4976651;28;20455;-68
2023/08/31 00:15:35;;;;;;;618.50;579.50;;;11.60;99.90;;;;;;4976395;28;20482;-69
2023/08/31 00:18:03;;;;;;;591.27;554.83;;;11.60;99.90;;;;;;4977616;28;20455;-67
2023/08/31 00:20:33;;;;;;;574.40;538.70;;;11.70;99.90;;;;;;4978057;28;20452;-69
2023/08/31 00:23:00;;;;;;;563.33;528.70;;;11.70;99.90;;;;;;4976510;28;20924;-69
2023/08/31 00:25:28;;;;;;;598.30;561.63;;;11.60;99.90;;;;;;4975793;28;20451;-68
2023/08/31 00:27:56;;;;;;;587.30;552.57;;;11.70;99.90;;;;;;4977152;28;20550;-69
2023/08/31 00:30:25;;;;;;;585.50;551.47;;;11.60;99.90;;;;;;4977034;28;20574;-69
2023/08/31 00:32:53;;;;;;;655.87;615.60;;;11.50;99.90;;;;;;4975968;28;20461;-68
2023/08/31 00:35:20;;;;;;;672.10;631.53;;;11.50;99.90;;;;;;4975572;28;20455;-69
2023/08/31 00:37:51;;;;;;;674.87;634.43;;;11.40;99.90;;;;;;4976727;28;20507;-68
2023/08/31 00:40:18;;;;;;;701.27;658.63;;;11.30;99.90;;;;;;4976671;28;20904;-68
2023/08/31 00:42:45;;;;;;;722.80;678.27;;;11.20;99.90;;;;;;4975826;28;20513;-68
2023/08/31 00:45:12;;;;;;;730.67;681.97;;;11.20;99.90;;;;;;4975477;28;20475;-68
2023/08/31 00:47:39;;;;;;;783.77;732.97;;;11.10;99.90;;;;;;4976822;28;20837;-68
2023/08/31 00:50:08;;;;;;;776.10;725.40;;;11.10;99.90;;;;;;4976053;28;20477;-68
2023/08/31 00:52:35;;;;;;;791.10;738.67;;;11.10;99.90;;;;;;4975812;28;20491;-68
2023/08/31 00:55:06;;;;;;;789.53;737.27;;;11.10;99.90;;;;;;4975554;28;20455;-68
2023/08/31 00:57:33;;;;;;;791.47;738.80;;;11.10;99.90;;;;;;4976579;28;20483;-68
2023/08/31 01:00:00;;;;;;;801.40;749.50;;;11.10;99.90;;;;;;4976236;28;20927;-68
2023/08/31 01:02:35;;;;;;;817.77;763.60;;;11.10;99.90;;;;;;4975737;28;20959;-68
2023/08/31 01:05:09;;;;;;;806.57;753.80;;;11.00;99.90;;;;;;4975320;28;20451;-68
2023/08/31 01:07:46;;;;;;;805.43;751.70;;;10.90;99.90;;;;;;4976516;28;20823;-68
2023/08/31 01:10:22;;;;;;;851.37;793.13;;;10.80;99.90;;;;;;4976057;28;20463;-68
2023/08/31 01:12:55;;;;;;;839.40;782.27;;;10.80;99.90;;;;;;4975571;28;20459;-68
2023/08/31 01:15:22;;;;;;;851.80;794.03;;;10.80;99.90;;;;;;4974727;28;20455;-69
2023/08/31 01:17:53;;;;;;;849.20;789.40;;;10.70;99.90;;;;;;4976262;28;20538;-68
2023/08/31 01:20:28;;;;;;;842.83;783.47;;;10.70;99.90;;;;;;4976290;28;20460;-68
2023/08/31 01:23:01;;;;;;;849.70;790.50;;;10.80;99.90;;;;;;4975194;28;20459;-69
2023/08/31 01:25:30;;;;;;;853.43;794.77;;;10.80;99.90;;;;;;4974678;28;20455;-68
2023/08/31 01:27:59;;;;;;;860.27;800.07;;;10.70;99.90;;;;;;4976023;28;20502;-68
2023/08/31 01:30:26;;;;;;;851.40;792.60;;;10.70;99.90;;;;;;4976752;28;20540;-69
2023/08/31 01:32:53;;;;;;;864.43;804.17;;;10.70;99.90;;;;;;4975238;28;20459;-68
2023/08/31 01:35:20;;;;;;;865.33;804.47;;;10.70;99.90;;;;;;4990586;28;20505;-69
2023/08/31 01:37:51;;;;;;;851.73;790.90;;;10.70;99.90;;;;;;4995363;28;20968;-68
2023/08/31 01:40:24;;;;;;;858.33;797.47;;;10.70;99.90;;;;;;4995054;28;20430;-68
2023/08/31 01:42:53;;;;;;;875.67;814.87;;;10.80;99.90;;;;;;4994261;28;20922;-69
2023/08/31 01:45:23;;;;;;;884.97;822.57;;;10.80;99.90;;;;;;4993846;28;20450;-69
2023/08/31 01:47:50;;;;;;;865.97;804.17;;;10.80;99.90;;;;;;4995139;28;20458;-69
2023/08/31 01:50:17;;;;;;;858.67;799.03;;;10.80;99.90;;;;;;4995198;28;20478;-69
2023/08/31 01:52:44;;;;;;;865.47;805.07;;;10.80;99.90;;;;;;4994205;28;20490;-68
2023/08/31 01:55:13;;;;;;;854.10;795.03;;;10.90;99.90;;;;;;4993863;28;20501;-68
2023/08/31 01:57:40;;;;;;;853.83;795.43;;;10.90;99.90;;;;;;4994968;28;20918;-68
2023/08/31 02:00:11;;;;;;;848.17;790.00;;;10.80;99.90;;;;;;4994619;28;20453;-68
2023/08/31 02:02:38;;;;;;;861.00;802.77;;;10.70;99.90;;;;;;4993908;28;20454;-68
2023/08/31 02:05:05;;;;;;;869.80;810.83;;;10.80;99.90;;;;;;4990364;28;20514;-68
2023/08/31 02:07:33;;;;;;;862.23;803.83;;;10.70;99.90;;;;;;4975048;28;20482;-69
2023/08/31 02:09:59;;;;;;;867.97;809.50;;;10.70;99.90;;;;;;4975295;28;20479;-69
2023/08/31 02:12:26;;;;;;;878.20;818.90;;;10.70;99.90;;;;;;4974951;28;20455;-68
2023/08/31 02:14:53;;;;;;;871.57;812.73;;;10.70;99.90;;;;;;4973894;28;20793;-69
2023/08/31 02:17:22;;;;;;;851.90;794.90;;;10.70;99.90;;;;;;4974796;28;20542;-68
2023/08/31 02:19:48;;;;;;;866.00;807.93;;;10.70;99.90;;;;;;4974967;28;20506;-67
2023/08/31 02:22:15;;;;;;;867.50;809.50;;;10.60;99.90;;;;;;4974781;28;20546;-67
2023/08/31 02:24:42;;;;;;;859.10;801.60;;;10.60;99.90;;;;;;4973526;28;20462;-67
2023/08/31 02:27:09;;;;;;;859.27;801.70;;;10.60;99.90;;;;;;4974447;28;21009;-68
2023/08/31 02:29:36;;;;;;;863.73;806.17;;;10.60;99.90;;;;;;4974823;28;20451;-68
2023/08/31 02:32:05;;;;;;;857.53;799.43;;;10.60;99.90;;;;;;4974693;28;20479;-68
2023/08/31 02:34:33;;;;;;;865.13;808.10;;;10.60;99.90;;;;;;4973881;28;20947;-68
2023/08/31 02:37:00;;;;;;;850.13;793.87;;;10.70;99.90;;;;;;4974421;28;20493;-68
2023/08/31 02:39:27;;;;;;;849.57;793.67;;;10.60;99.90;;;;;;4974678;28;20482;-68
2023/08/31 02:41:54;;;;;;;849.17;793.13;;;10.60;99.90;;;;;;4974675;28;20535;-67
2023/08/31 02:44:21;;;;;;;841.83;786.00;;;10.60;99.90;;;;;;4973697;28;20450;-69
2023/08/31 02:46:48;;;;;;;858.80;802.83;;;10.60;99.90;;;;;;4974876;28;20491;-68
2023/08/31 02:49:15;;;;;;;835.47;779.97;;;10.60;99.90;;;;;;4974977;28;20482;-68
2023/08/31 02:51:43;;;;;;;858.00;802.20;;;10.60;99.90;;;;;;4974450;28;20475;-69
2023/08/31 02:54:10;;;;;;;833.73;779.37;;;10.50;99.90;;;;;;4973332;28;20951;-68
2023/08/31 02:56:37;;;;;;;836.23;781.67;;;10.50;99.90;;;;;;4973915;28;20459;-69
2023/08/31 02:59:04;;;;;;;848.53;792.03;;;10.50;99.90;;;;;;4974818;28;20857;-69
2023/08/31 03:01:31;;;;;;;864.10;806.40;;;10.40;99.90;;;;;;4974760;28;20451;-68
2023/08/31 03:03:58;;;;;;;873.30;812.40;;;10.40;99.90;;;;;;4973302;28;20541;-69
2023/08/31 03:06:26;;;;;;;859.37;799.77;;;10.50;99.90;;;;;;4973745;28;20542;-67
2023/08/31 03:08:54;;;;;;;845.40;786.80;;;10.60;99.90;;;;;;4975570;28;20579;-68
2023/08/31 03:11:21;;;;;;;842.80;785.40;;;10.70;99.90;;;;;;4974651;28;20905;-68
2023/08/31 03:13:48;;;;;;;841.37;784.43;;;10.80;99.90;;;;;;4973761;28;20977;-68
2023/08/31 03:16:15;;;;;;;848.57;790.10;;;10.90;99.90;;;;;;4977475;28;20458;-68
2023/08/31 03:18:43;;;;;;;821.73;766.27;;;11.10;99.90;;;;;;4978431;28;20451;-68
2023/08/31 03:21:10;;;;;;;781.67;730.60;;;11.20;99.90;;;;;;4978143;28;20447;-68
2023/08/31 03:23:37;;;;;;;760.00;711.83;;;11.30;99.90;;;;;;4977288;28;20477;-68
2023/08/31 03:26:09;;;;;;;726.67;682.17;;;11.30;99.90;;;;;;4977051;28;20453;-68
2023/08/31 03:28:38;;;;;;;704.03;662.97;;;11.40;99.90;;;;;;4978321;28;20478;-68
2023/08/31 03:31:05;;;;;;;671.37;634.10;;;11.60;99.90;;;;;;4978189;28;20529;-67
2023/08/31 03:33:32;;;;;;;659.03;622.47;;;11.60;99.90;;;;;;4977061;28;20814;-67
2023/08/31 03:36:04;;;;;;;577.30;547.80;;;11.70;99.90;;;;;;4977702;28;20815;-67
2023/08/31 03:38:31;;;;;;;541.90;514.87;;;11.70;99.90;;;;;;4978165;28;20448;-67
2023/08/31 03:40:58;;;;;;;551.07;524.33;;;11.70;99.90;;;;;;4977995;28;20451;-68
2023/08/31 03:43:27;;;;;;;533.27;507.50;;;11.70;99.90;;;;;;4976652;28;20458;-68
2023/08/31 03:45:57;;;;;;;583.73;555.57;;;11.60;99.90;;;;;;4976316;28;20827;-68
2023/08/31 03:48:24;;;;;;;604.27;574.07;;;11.50;99.90;;;;;;4977862;28;20509;-67
2023/08/31 03:50:52;;;;;;;635.30;603.50;;;11.40;99.90;;;;;;4977784;28;20509;-68
2023/08/31 03:53:18;;;;;;;668.50;634.00;;;11.30;99.90;;;;;;4976752;28;20462;-68
2023/08/31 03:55:46;;;;;;;699.33;661.07;;;11.30;99.90;;;;;;4976718;28;20893;-67
2023/08/31 03:58:12;;;;;;;714.23;674.60;;;11.30;99.90;;;;;;4977776;28;20866;-67
2023/08/31 04:00:41;;;;;;;720.50;679.97;;;11.20;99.90;;;;;;4977703;28;20526;-67
2023/08/31 04:03:09;;;;;;;721.47;678.90;;;11.20;99.90;;;;;;4976454;28;20455;-68
2023/08/31 04:05:36;;;;;;;757.70;712.30;;;11.20;99.90;;;;;;4976318;28;20455;-67
2023/08/31 04:08:04;;;;;;;758.37;713.00;;;11.10;99.90;;;;;;4977544;28;20459;-68
2023/08/31 04:10:32;;;;;;;766.23;719.17;;;11.00;99.90;;;;;;4977151;28;20451;-67
2023/08/31 04:12:59;;;;;;;771.87;724.67;;;11.00;99.90;;;;;;4979012;28;20458;-68
2023/08/31 04:15:26;;;;;;;793.97;743.83;;;11.00;99.90;;;;;;4980253;28;20455;-68
2023/08/31 04:17:54;;;;;;;802.43;750.70;;;10.90;99.90;;;;;;4977114;28;20975;-67
2023/08/31 04:20:22;;;;;;;806.77;754.10;;;11.00;99.90;;;;;;4976998;28;20457;-67
2023/08/31 04:22:48;;;;;;;804.80;753.10;;;10.90;99.90;;;;;;4976143;28;21144;-67
2023/08/31 04:25:15;;;;;;;822.10;768.23;;;10.90;99.90;;;;;;4983036;28;20535;-67
2023/08/31 04:27:43;;;;;;;792.00;739.40;;;10.90;99.90;;;;;;4996282;28;20458;-67
2023/08/31 04:30:11;;;;;;;805.00;751.30;;;10.90;99.90;;;;;;4996582;28;20458;-67
2023/08/31 04:32:38;;;;;;;805.53;752.20;;;10.90;99.90;;;;;;4995857;28;20566;-68
2023/08/31 04:35:07;;;;;;;827.33;772.13;;;10.80;99.90;;;;;;4995252;28;20457;-68
2023/08/31 04:37:34;;;;;;;812.60;758.57;;;10.90;99.90;;;;;;4996388;28;20454;-68
2023/08/31 04:40:01;;;;;;;838.67;783.30;;;10.80;99.90;;;;;;4996107;28;20545;-67
2023/08/31 04:42:27;;;;;;;830.17;774.50;;;10.80;99.90;;;;;;4996320;28;20477;-67
2023/08/31 04:44:54;;;;;;;845.43;787.57;;;10.70;99.90;;;;;;4995258;28;20873;-67
2023/08/31 04:47:21;;;;;;;851.43;792.40;;;10.60;99.90;;;;;;4996162;28;20549;-67
2023/08/31 04:49:50;;;;;;;866.57;805.77;;;10.50;99.90;;;;;;4996718;28;20545;-67
2023/08/31 04:52:18;;;;;;;863.13;801.47;;;10.50;99.90;;;;;;4993943;28;20553;-67
2023/08/31 04:54:45;;;;;;;880.90;818.07;;;10.50;99.90;;;;;;4982781;28;20519;-67
2023/08/31 04:57:12;;;;;;;878.83;814.90;;;10.50;99.90;;;;;;4976521;28;20448;-67
2023/08/31 04:59:39;;;;;;;876.63;812.00;;;10.50;99.90;;;;;;4976643;28;20473;-67
2023/08/31 05:02:06;;;;;;;865.03;801.60;;;10.50;99.90;;;;;;4976072;28;20443;-67
2023/08/31 05:04:33;;;;;;;866.90;802.30;;;10.60;99.90;;;;;;4975056;28;20530;-67
2023/08/31 05:07:00;;;;;;;876.87;811.20;;;10.60;99.90;;;;;;4976901;28;20490;-68
2023/08/31 05:09:32;;;;;;;872.33;806.83;;;10.60;99.90;;;;;;4976383;28;20538;-67
2023/08/31 05:11:59;;;;;;;861.83;796.83;;;10.60;99.90;;;;;;4976248;28;20467;-67
2023/08/31 05:14:26;;;;;;;859.07;793.73;;;10.60;99.90;;;;;;4989641;28;20509;-67
2023/08/31 05:16:53;;;;;;;861.83;796.53;;;10.60;99.90;;;;;;4975637;28;20487;-67
2023/08/31 05:19:19;;;;;;;855.53;790.17;;;10.70;99.90;;;;;;4975928;28;20514;-67
2023/08/31 05:21:47;;;;;;;855.00;790.07;;;10.70;99.90;;;;;;4977738;28;20490;-67
2023/08/31 05:24:13;;;;;;;862.33;796.70;;;10.70;99.90;;;;;;4978457;28;20458;-67
2023/08/31 05:26:42;;;;;;;855.57;790.07;;;10.70;99.90;;;;;;4992569;28;20469;-67
2023/08/31 05:29:08;;;;;;;857.27;792.30;;;10.70;99.90;;;;;;4995154;28;20545;-67
2023/08/31 05:31:35;;;;;;;842.20;777.40;;;10.80;99.90;;;;;;4994927;28;21022;-67
2023/08/31 05:34:02;;;;;;;851.50;786.07;;;10.80;99.90;;;;;;4987937;28;20461;-67
2023/08/31 05:36:29;;;;;;;871.87;806.30;;;10.90;99.90;;;;;;4981088;28;20456;-67
2023/08/31 05:38:56;;;;;;;860.77;796.10;;;10.90;99.90;;;;;;4975849;28;20543;-67
2023/08/31 05:41:23;;;;;;;870.10;805.80;;;11.00;99.90;;;;;;4975860;28;20494;-67
2023/08/31 05:43:52;;;;;;;870.23;806.07;;;11.00;99.90;;;;;;4983101;28;20454;-67
2023/08/31 05:46:19;;;;;;;866.30;802.80;;;11.00;99.90;;;;;;4976798;28;20455;-67
2023/08/31 05:48:46;;;;;;;858.83;794.70;;;11.10;99.90;;;;;;4975574;28;20546;-67
2023/08/31 05:51:13;;;;;;;853.37;789.40;;;11.20;99.90;;;;;;4975810;28;20991;-67
2023/08/31 05:53:39;;;;;;;861.07;799.17;;;11.30;99.90;;;;;;4981731;28;20878;-67
2023/08/31 05:56:07;;;;;;;847.97;787.93;;;11.50;99.90;;;;;;4986357;28;20458;-68
2023/08/31 05:58:35;;;;;;;820.93;763.27;;;11.60;99.90;;;;;;4994602;28;20879;-67
2023/08/31 06:01:03;;;;;;;832.07;774.30;;;11.60;99.90;;;;;;4994618;28;20537;-67
2023/08/31 06:03:31;;;;;;;814.17;758.73;;;11.80;99.90;;;;;;4985124;28;20538;-67
2023/08/31 06:05:58;;;;;;;800.83;746.37;;;11.80;99.90;;;;;;4986779;28;20461;-67
2023/08/31 06:08:26;;;;;;;786.63;734.00;;;11.90;99.90;;;;;;4994783;28;20546;-67
2023/08/31 06:10:53;;;;;;;787.37;736.07;;;12.00;99.90;;;;;;4994449;28;20541;-67
2023/08/31 06:13:20;;;;;;;761.43;713.10;;;12.10;99.90;;;;;;4987611;28;20541;-67
2023/08/31 06:15:47;;;;;;;733.17;687.37;;;12.20;99.90;;;;;;4978717;28;20523;-67
2023/08/31 06:18:15;;;;;;;675.17;635.83;;;12.30;99.90;;;;;;4975193;28;20947;-67
2023/08/31 06:20:42;;;;;;;649.63;612.33;;;12.30;99.90;;;;;;4975230;28;20474;-67
2023/08/31 06:23:12;;;;;;;657.07;620.53;;;12.40;99.90;;;;;;4979314;28;20905;-67
2023/08/31 06:25:38;;;;;;;643.47;608.33;;;12.50;99.90;;;;;;4984054;28;20498;-68
2023/08/31 06:28:08;;;;;;;662.40;625.77;;;12.60;99.90;;;;;;4994417;28;20900;-65
2023/08/31 06:30:35;;;;;;;642.47;607.87;;;12.60;99.90;;;;;;4994468;28;20532;-67
2023/08/31 06:33:02;;;;;;;602.47;570.77;;;12.70;99.90;;;;;;4988428;28;20481;-67
2023/08/31 06:35:30;;;;;;;536.57;510.47;;;12.80;99.90;;;;;;4992857;28;20481;-67
2023/08/31 06:37:57;;;;;;;475.90;453.37;;;12.90;99.90;;;;;;4995219;28;20462;-67
2023/08/31 06:40:25;;;;;;;499.53;475.37;;;13.00;99.90;;;;;;4994428;28;20883;-67
2023/08/31 06:42:52;;;;;;;488.80;465.97;;;13.00;99.90;;;;;;4992958;28;20482;-68
2023/08/31 06:45:19;;;;;;;409.43;391.40;;;13.20;99.90;;;;;;4992153;28;20545;-68
2023/08/31 06:47:46;;;;;;;405.63;388.03;;;13.20;99.90;;;;;;4994078;28;20537;-68
2023/08/31 06:50:13;;;;;;;331.57;317.07;;;13.30;99.90;;;;;;4997137;28;20485;-69
2023/08/31 06:52:41;;;;;;;267.53;256.73;;;13.40;99.90;;;;;;4997398;28;20966;-69
2023/08/31 06:55:10;;;;;;;308.17;295.93;;;13.50;99.90;;;;;;4996445;28;20494;-68
2023/08/31 06:57:37;;;;;;;290.13;278.43;;;13.50;99.90;;;;;;4998017;28;20450;-68
2023/08/31 07:00:06;;;;;;;241.00;231.83;;;13.60;99.90;;;;;;4998260;28;20821;-69
2023/08/31 07:02:34;;;;;;;260.90;251.17;;;13.60;99.90;;;;;;4997010;28;20454;-68
2023/08/31 07:05:01;;;;;;;172.93;166.47;;;13.70;99.90;;;;;;4996167;28;20869;-68
2023/08/31 07:07:28;;;;;;;215.57;207.67;;;13.80;99.90;;;;;;4998067;28;20865;-69
2023/08/31 07:09:56;;;;;;;221.70;213.17;;;13.80;99.90;;;;;;4998100;28;20447;-69
2023/08/31 07:12:23;;;;;;;137.67;132.63;;;13.90;99.90;;;;;;4997358;28;20561;-68
2023/08/31 07:14:50;;;;;;;110.63;106.73;;;14.00;99.90;;;;;;4996257;28;20505;-68
2023/08/31 07:17:19;;;;;;;90.53;86.93;;;14.10;99.90;;;;;;4997358;28;20455;-68
2023/08/31 07:19:46;;;;;;;99.03;94.73;;;14.10;99.90;;;;;;4997660;28;20545;-69
2023/08/31 07:22:13;;;;;;;109.57;105.63;;;14.20;99.90;;;;;;4997318;28;20533;-68
2023/08/31 07:24:40;;;;;;;115.07;110.67;;;14.30;99.90;;;;;;4995875;28;20537;-69
2023/08/31 07:27:09;;;;;;;71.40;67.90;;;14.30;99.90;;;;;;4997192;28;20894;-68
2023/08/31 07:29:36;;;;;;;52.97;50.27;;;14.40;99.90;;;;;;4998241;28;20454;-68
2023/08/31 07:32:03;;;;;;;53.40;51.20;;;14.40;99.90;;;;;;4997049;28;20482;-69
2023/08/31 07:34:31;;;;;;;59.20;56.60;;;14.50;99.90;;;;;;4995673;28;20450;-68
2023/08/31 07:36:58;;;;;;;41.53;39.63;;;14.60;99.90;;;;;;4996888;28;20454;-68
2023/08/31 07:39:25;;;;;;;29.43;27.80;;;14.70;99.90;;;;;;4997579;28;20545;-69
2023/08/31 07:41:51;;;;;;;23.37;21.93;;;14.80;99.90;;;;;;4997183;28;20529;-69
2023/08/31 07:44:20;;;;;;;31.13;29.33;;;14.90;99.90;;;;;;4995946;28;20479;-68
2023/08/31 07:46:46;;;;;;;15.37;13.77;;;15.00;99.90;;;;;;4996896;28;20455;-69
2023/08/31 07:49:13;;;;;;;10.37;9.53;;;15.10;99.90;;;;;;4997411;28;20482;-69
2023/08/31 07:51:40;;;;;;;12.83;7.93;;;15.20;99.90;;;;;;4997104;28;20797;-68
2023/08/31 07:54:07;;;;;;;9.50;6.10;;;15.40;99.90;;;;;;4995777;28;20523;-69
2023/08/31 07:56:34;;;;;;;7.50;4.87;;;15.60;99.90;;;;;;4996244;28;20450;-69
2023/08/31 07:59:01;;;;;;;8.93;4.83;;;15.90;99.90;;;;;;4998009;28;20852;-69
2023/08/31 08:01:29;;;;;;;10.00;3.80;;;16.00;99.90;;;;;;4996746;28;20868;-69
2023/08/31 08:03:56;;;;;;;10.90;3.77;;;16.10;99.90;;;;;;4995496;28;21022;-69
2023/08/31 08:06:23;;;;;;;7.67;4.00;;;16.20;99.90;;;;;;4995687;28;20454;-70
2023/08/31 08:08:50;;;;;;;7.10;3.00;;;16.60;99.90;;;;;;4996931;28;20457;-69
2023/08/31 08:11:17;;;;;;;10.13;3.87;;;16.70;99.90;;;;;;4996694;28;20450;-69
2023/08/31 08:13:44;;;;;;;5.30;3.30;;;16.80;99.90;;;;;;4995051;28;20758;-69
2023/08/31 08:16:11;;;;;;;6.27;2.80;;;17.00;99.90;;;;;;4995582;28;20450;-69
2023/08/31 08:18:39;;;;;;;5.10;2.60;;;17.20;99.90;;;;;;4996861;28;20491;-68
2023/08/31 08:21:06;;;;;;;6.63;3.20;;;17.30;99.90;;;;;;4996557;28;20459;-69
2023/08/31 08:23:34;;;;;;;8.50;2.50;;;17.40;99.90;;;;;;4995537;28;20533;-69
2023/08/31 08:26:01;;;;;;;8.07;3.20;;;17.60;98.50;;;;;;4995138;28;20537;-69
2023/08/31 08:28:29;;;;;;;5.10;2.10;;;17.60;97.60;;;;;;4996743;28;20442;-69
2023/08/31 08:30:56;;;;;;;6.93;2.00;;;17.60;96.30;;;;;;4996599;28;20459;-69
2023/08/31 08:33:23;;;;;;;8.10;2.47;;;17.60;95.80;;;;;;4995180;28;20478;-69
2023/08/31 08:35:51;;;;;;;7.80;2.60;;;18.00;96.40;;;;;;4995307;28;20454;-69
2023/08/31 08:38:18;;;;;;;9.03;2.97;;;18.40;94.50;;;;;;4996235;28;20487;-70
2023/08/31 08:40:45;;;;;;;6.70;2.20;;;18.60;94.50;;;;;;4996179;28;20541;-68
2023/08/31 08:43:12;;;;;;;10.80;2.90;;;18.80;92.90;;;;;;4995106;28;20482;-69
2023/08/31 08:45:41;;;;;;;12.43;2.60;;;19.20;91.30;;;;;;4994806;28;20457;-68
2023/08/31 08:48:08;;;;;;;11.60;2.83;;;19.40;90.10;;;;;;4996033;28;20967;-69
2023/08/31 08:50:37;;;;;;;5.37;2.40;;;19.80;88.60;;;;;;4996303;28;20815;-69
2023/08/31 08:53:06;;;;;;;9.57;2.17;;;19.90;86.00;;;;;;4994743;28;20478;-68
2023/08/31 08:55:33;;;;;;;9.77;2.40;;;20.10;86.20;;;;;;4994411;28;20550;-68
2023/08/31 08:58:01;;;;;;;7.03;2.60;;;20.20;86.30;;;;;;4996189;28;20450;-69
2023/08/31 09:00:28;;;;;;;9.93;2.40;;;20.40;78.50;;;;;;4996119;28;20816;-69
2023/08/31 09:02:56;;;;;;;5.77;2.13;;;20.40;78.50;;;;;;4994824;28;21032;-69
2023/08/31 09:05:23;;;;;;;9.60;3.07;;;20.60;78.70;;;;;;4994516;28;20486;-69
2023/08/31 09:08:06;;;;;;;8.00;2.77;;;20.80;74.00;;;;;;4995969;28;20850;-69
2023/08/31 09:10:41;;;;;;;9.77;1.90;;;20.80;70.90;;;;;;4995938;28;20446;-70
2023/08/31 09:13:09;;;;;;;6.50;2.10;;;20.70;70.80;;;;;;4994056;28;20477;-70
2023/08/31 09:15:43;;;;;;;8.53;2.30;;;20.70;70.70;;;;;;4994333;28;20461;-71
2023/08/31 09:18:15;;;;;;;7.03;2.20;;;20.90;67.40;;;;;;4995514;28;20541;-69
2023/08/31 09:20:49;;;;;;;7.30;3.20;;;20.90;65.10;;;;;;4995684;28;20434;-70
2023/08/31 09:23:17;;;;;;;7.67;2.70;;;21.10;66.60;;;;;;4994405;28;20545;-70
2023/08/31 09:25:45;;;;;;;5.90;2.30;;;21.20;63.00;;;;;;4993915;28;20537;-69
2023/08/31 09:28:14;;;;;;;10.43;3.47;;;21.30;63.00;;;;;;4995953;28;20458;-70
2023/08/31 09:30:41;;;;;;;8.53;3.03;;;21.30;63.00;;;;;;4995193;28;20462;-70
2023/08/31 09:33:09;;;;;;;8.27;2.43;;;21.60;63.30;;;;;;4994744;28;20482;-70
2023/08/31 09:35:40;;;;;;;9.53;2.67;;;21.70;62.20;;;;;;4994200;28;20461;-71
2023/08/31 09:38:09;;;;;;;9.13;3.00;;;22.00;65.30;;;;;;4994944;28;20456;-71
2023/08/31 09:40:38;;;;;;;7.30;2.53;;;22.40;64.00;;;;;;4995041;28;20214;-70
2023/08/31 09:43:05;;;;;;;11.03;3.07;;;22.40;46.60;;;;;;4994267;28;20443;-74
2023/08/31 09:45:34;;;;;;;13.00;2.83;;;22.70;47.00;;;;;;4994328;28;20476;-67
2023/08/31 09:48:04;;;;;;;6.90;2.57;;;22.80;42.20;;;;;;4994900;28;20457;-70
2023/08/31 09:50:32;;;;;;;8.50;2.60;;;22.80;37.90;;;;;;4995154;28;20853;-70
2023/08/31 09:53:03;;;;;;;8.67;2.90;;;22.30;37.40;;;;;;4994320;28;20478;-68
2023/08/31 09:55:31;;;;;;;9.33;2.77;;;22.60;41.30;;;;;;4994064;28;20459;-68
2023/08/31 09:58:02;;;;;;;9.17;2.60;;;23.00;38.20;;;;;;4994719;28;20467;-68
2023/08/31 10:00:31;;;;;;;7.53;2.27;;;23.20;38.30;;;;;;4994656;28;20470;-69
2023/08/31 10:03:01;;;;;;;10.00;3.00;;;23.80;32.20;;;;;;4993888;28;20453;-69
2023/08/31 10:05:28;;;;;;;8.93;3.10;;;23.80;34.80;;;;;;4993915;28;20454;-70
2023/08/31 10:07:55;;;;;;;10.50;3.53;;;24.10;29.90;;;;;;4994554;28;20461;-70
2023/08/31 10:10:24;;;;;;;8.70;3.00;;;24.90;24.60;;;;;;4995008;28;20509;-71
2023/08/31 10:12:54;;;;;;;7.50;2.57;;;24.70;26.20;;;;;;4994343;28;20529;-70
2023/08/31 10:15:24;;;;;;;7.77;2.93;;;24.50;22.90;;;;;;4993707;28;20796;-70
2023/08/31 10:17:51;;;;;;;5.60;2.30;;;24.30;29.70;;;;;;4994440;28;20545;-69
2023/08/31 10:20:18;;;;;;;7.20;2.67;;;23.80;26.20;;;;;;4994701;28;20450;-70
2023/08/31 10:22:46;;;;;;;7.27;2.00;;;23.40;22.20;;;;;;4993946;28;20856;-68
2023/08/31 10:25:13;;;;;;;7.20;2.53;;;23.00;22.40;;;;;;4993461;28;20497;-69
2023/08/31 10:27:41;;;;;;;11.43;2.37;;;22.80;29.00;;;;;;4994309;28;20469;-70
2023/08/31 10:30:27;;;;;;;12.73;2.73;;;21.70;28.20;;;;;;4994546;28;20500;-70
2023/08/31 10:33:23;;;;;;;8.10;2.40;;;21.70;34.20;;;;;;4993776;28;20478;-69
2023/08/31 10:35:51;;;;;;;7.67;2.10;;;23.00;29.20;;;;;;4993701;28;20451;-69
2023/08/31 10:38:25;;;;;;;5.80;2.00;;;23.00;29.20;;;;;;4994134;28;20450;-69
2023/08/31 10:41:21;;;;;;;6.77;2.30;;;22.70;29.00;;;;;;4994505;28;20431;-69
2023/08/31 10:43:50;;;;;;;8.13;2.50;;;21.90;28.20;;;;;;4993236;28;20456;-70
2023/08/31 10:46:29;;;;;;;7.67;2.53;;;20.70;27.50;;;;;;4993460;28;20943;-69
2023/08/31 10:48:58;;;;;;;7.50;2.57;;;21.70;28.40;;;;;;4994312;28;20435;-69
2023/08/31 10:51:29;;;;;;;9.93;2.83;;;22.30;28.70;;;;;;4993828;28;20534;-69
2023/08/31 10:54:10;;;;;;;6.47;2.63;;;23.30;27.70;;;;;;4993215;28;20566;-69
2023/08/31 10:56:53;;;;;;;8.73;2.10;;;23.60;22.30;;;;;;4993775;28;20454;-69
2023/08/31 10:59:21;;;;;;;5.70;1.90;;;24.40;22.90;;;;;;4994366;28;20435;-70
2023/08/31 11:02:01;;;;;;;7.20;2.37;;;25.20;19.10;;;;;;4993813;28;20446;-70
2023/08/31 11:04:29;;;;;;;9.40;3.20;;;26.20;16.40;;;;;;4992976;28;20859;-71
2023/08/31 11:07:16;;;;;;;6.43;2.53;;;26.40;14.60;;;;;;4993663;28;20531;-70
2023/08/31 11:09:44;;;;;;;11.43;3.50;;;26.40;11.80;;;;;;4994081;28;20785;-70
2023/08/31 11:12:11;;;;;;;10.83;2.80;;;26.50;9.00;;;;;;4993627;28;20840;-72
2023/08/31 11:14:39;;;;;;;7.90;2.40;;;26.70;9.00;;;;;;4992691;28;20577;-72
2023/08/31 11:17:07;;;;;;;10.03;2.90;;;26.60;8.30;;;;;;4994496;28;20455;-71
2023/08/31 11:19:35;;;;;;;10.50;2.63;;;27.10;9.20;;;;;;4994148;28;20450;-70
2023/08/31 11:22:03;;;;;;;7.07;2.80;;;27.40;9.30;;;;;;4993682;28;20456;-71
2023/08/31 11:24:30;;;;;;;7.03;2.10;;;27.70;1.70;;;;;;4992777;28;20450;-70
2023/08/31 11:26:57;;;;;;;10.00;2.30;;;27.80;1.80;;;;;;4993633;28;20529;-70
2023/08/31 11:29:24;;;;;;;7.27;1.87;;;27.90;1.80;;;;;;4994222;28;20545;-72
2023/08/31 11:31:51;;;;;;;9.20;2.50;;;27.30;1.00;;;;;;4993798;28;20533;-71
2023/08/31 11:34:19;;;;;;;6.77;2.30;;;28.30;1.00;;;;;;4992789;28;20559;-71
2023/08/31 11:36:48;;;;;;;6.77;2.00;;;27.60;1.00;;;;;;4996889;28;20456;-72
2023/08/31 11:39:15;;;;;;;7.73;2.53;;;26.10;1.00;;;;;;4997685;28;20486;-72
2023/08/31 11:41:43;;;;;;;7.63;1.93;;;25.70;1.00;;;;;;4997410;28;20541;-72
2023/08/31 11:44:12;;;;;;;7.67;1.83;;;25.10;1.00;;;;;;4996611;28;20442;-73
2023/08/31 11:46:40;;;;;;;8.73;2.20;;;25.40;1.00;;;;;;4996463;28;20457;-71
2023/08/31 11:49:07;;;;;;;12.43;2.27;;;25.00;1.00;;;;;;4997431;28;20455;-72
2023/08/31 11:51:37;;;;;;;8.23;2.40;;;25.50;1.00;;;;;;4996975;28;20987;-71
2023/08/31 11:54:05;;;;;;;5.50;1.63;;;26.00;1.00;;;;;;4996161;28;20492;-71
2023/08/31 11:56:42;;;;;;;8.00;1.70;;;26.90;1.00;;;;;;4996657;28;20477;-70
2023/08/31 11:59:11;;;;;;;8.23;2.30;;;27.10;1.00;;;;;;4997317;28;20449;-72
2023/08/31 12:01:40;;;;;;;7.07;2.37;;;27.10;1.00;;;;;;4997561;28;20454;-71
2023/08/31 12:04:12;;;;;;;7.23;2.27;;;26.50;1.00;;;;;;4995774;28;20447;-73
2023/08/31 12:06:41;;;;;;;8.10;2.63;;;25.90;1.00;;;;;;4996600;28;20466;-73
2023/08/31 12:09:09;;;;;;;6.43;1.93;;;25.70;1.00;;;;;;4997042;28;20446;-71
2023/08/31 12:11:36;;;;;;;6.30;2.33;;;26.10;1.00;;;;;;4996924;28;20890;-73
2023/08/31 12:14:04;;;;;;;6.50;2.27;;;26.50;1.00;;;;;;4995730;28;20478;-70
2023/08/31 12:16:35;;;;;;;7.93;1.83;;;27.00;1.00;;;;;;4996526;28;20450;-71
2023/08/31 12:19:04;;;;;;;7.17;2.03;;;27.50;1.00;;;;;;4997393;28;20451;-71
2023/08/31 12:21:32;;;;;;;6.57;1.83;;;27.70;1.00;;;;;;4996571;28;20451;-71
2023/08/31 12:24:00;;;;;;;5.80;2.30;;;28.40;1.00;;;;;;4995150;28;20450;-72
2023/08/31 12:26:28;;;;;;;7.43;2.80;;;28.10;1.00;;;;;;4995607;28;20553;-73
2023/08/31 12:28:55;;;;;;;9.37;2.90;;;26.90;1.00;;;;;;4996745;28;20458;-71